Time;durP1;ratioP1;P1;durP2;ratioP2;P2;SDS_P1;SDS_P2;PMS_P1;PMS_P2;Temp;Humidity;BMP_temperature;BMP_pressure;BME280_temperature;BME280_humidity;BME280_pressure;Samples;Min_cycle;Max_cycle;Signal;HPM_P1;HPM_P2
2023/07/23 00:02:14;;;;;;;7.82;5.65;;;;;;;14.63;100.00;98725.13;5118929;28;20051;-66
2023/07/23 00:04:40;;;;;;;11.23;10.27;;;;;;;14.78;100.00;98723.06;5118452;28;20353;-63
2023/07/23 00:07:06;;;;;;;7.18;6.32;;;;;;;14.77;100.00;98711.25;5118933;28;20597;-63
2023/07/23 00:09:32;;;;;;;10.25;9.20;;;;;;;14.88;100.00;98710.38;5118385;28;20052;-63
2023/07/23 00:11:58;;;;;;;12.68;7.10;;;;;;;14.81;100.00;98709.25;5118328;28;20139;-63
2023/07/23 00:14:24;;;;;;;9.85;6.53;;;;;;;14.74;100.00;98714.03;5118293;28;20138;-64
2023/07/23 00:16:51;;;;;;;12.38;6.45;;;;;;;14.76;100.00;98715.22;5118179;28;20337;-66
2023/07/23 00:19:19;;;;;;;9.10;7.68;;;;;;;14.49;100.00;98717.66;5117297;28;20056;-64
2023/07/23 00:21:45;;;;;;;11.45;6.95;;;;;;;14.82;100.00;98701.75;5118477;28;20086;-64
2023/07/23 00:24:12;;;;;;;8.20;6.93;;;;;;;14.92;100.00;98716.66;5118606;28;20055;-67
2023/07/23 00:26:38;;;;;;;10.52;6.60;;;;;;;14.88;100.00;98721.44;5118312;28;20048;-68
2023/07/23 00:29:04;;;;;;;8.57;6.78;;;;;;;14.84;100.00;98726.97;5118505;28;20113;-67
2023/07/23 00:31:29;;;;;;;7.13;6.22;;;;;;;14.90;100.00;98727.34;5118461;28;20309;-65
2023/07/23 00:33:55;;;;;;;8.07;6.75;;;;;;;14.78;100.00;98736.88;5118340;28;20409;-64
2023/07/23 00:36:21;;;;;;;8.68;6.35;;;;;;;14.77;100.00;98738.06;5117867;28;20135;-64
2023/07/23 00:38:48;;;;;;;7.72;6.45;;;;;;;14.65;100.00;98736.53;5118313;28;20091;-63
2023/07/23 00:41:14;;;;;;;9.90;5.65;;;;;;;14.70;100.00;98738.88;5117952;28;20108;-67
2023/07/23 00:43:40;;;;;;;12.40;6.40;;;;;;;14.64;100.00;98742.47;5118347;28;20138;-68
2023/07/23 00:46:07;;;;;;;8.32;5.68;;;;;;;14.72;100.00;98747.53;5117805;28;20142;-68
2023/07/23 00:48:33;;;;;;;7.70;6.03;;;;;;;14.36;100.00;98747.69;5118000;28;20142;-67
2023/07/23 00:50:59;;;;;;;8.32;7.63;;;;;;;14.57;100.00;98730.28;5117801;28;20051;-68
2023/07/23 00:53:25;;;;;;;7.28;5.97;;;;;;;14.61;100.00;98737.75;5117947;28;20089;-65
2023/07/23 00:55:53;;;;;;;11.00;5.65;;;;;;;14.50;100.00;98738.59;5117861;28;20062;-68
2023/07/23 00:58:20;;;;;;;9.20;6.30;;;;;;;14.62;100.00;98745.63;5117679;28;20047;-64
2023/07/23 01:00:46;;;;;;;8.73;6.28;;;;;;;14.54;100.00;98749.59;5118011;28;20147;-67
2023/07/23 01:03:12;;;;;;;5.90;5.28;;;;;;;14.53;100.00;98754.34;5117661;28;20044;-65
2023/07/23 01:05:39;;;;;;;7.35;6.15;;;;;;;14.62;100.00;98758.63;5117851;28;20393;-64
2023/07/23 01:08:07;;;;;;;6.88;5.63;;;;;;;14.56;100.00;98759.06;5117425;28;20055;-68
2023/07/23 01:10:33;;;;;;;10.75;5.88;;;;;;;14.47;100.00;98761.44;5117838;28;20371;-68
2023/07/23 01:12:59;;;;;;;6.28;5.43;;;;;;;14.50;100.00;98755.13;5117412;28;20057;-64
2023/07/23 01:15:28;;;;;;;8.80;6.22;;;;;;;14.35;100.00;98759.09;5117826;28;20043;-65
2023/07/23 01:17:54;;;;;;;6.35;5.70;;;;;;;14.40;100.00;98757.94;5117270;28;20054;-67
2023/07/23 01:20:20;;;;;;;5.72;5.13;;;;;;;14.23;100.00;98765.84;5117507;28;20150;-64
2023/07/23 01:22:47;;;;;;;7.10;6.40;;;;;;;14.34;100.00;98760.31;5117501;28;20087;-68
2023/07/23 01:25:13;;;;;;;8.10;6.15;;;;;;;14.29;100.00;98747.69;5117218;28;20433;-68
2023/07/23 01:27:39;;;;;;;8.30;6.55;;;;;;;14.40;100.00;98749.66;5117549;28;20142;-67
2023/07/23 01:30:08;;;;;;;8.90;7.22;;;;;;;14.30;100.00;98743.00;5116910;28;20112;-65
2023/07/23 01:32:34;;;;;;;8.30;6.32;;;;;;;14.39;100.00;98745.31;5117611;28;20318;-68
2023/07/23 01:35:08;;;;;;;8.65;5.95;;;;;;;14.28;100.00;98743.38;5117102;28;20139;-66
2023/07/23 01:37:34;;;;;;;6.75;5.80;;;;;;;14.06;100.00;98753.69;5117392;28;20047;-64
2023/07/23 01:40:01;;;;;;;7.65;6.13;;;;;;;14.30;100.00;98754.03;5117026;28;20073;-68
2023/07/23 01:42:27;;;;;;;7.63;6.13;;;;;;;14.11;100.00;98744.22;5116941;28;20497;-68
2023/07/23 01:44:53;;;;;;;10.35;6.95;;;;;;;14.20;100.00;98744.59;5117204;28;20058;-67
2023/07/23 01:47:19;;;;;;;7.22;6.07;;;;;;;14.20;100.00;98743.81;5117108;28;20059;-68
2023/07/23 01:49:45;;;;;;;7.00;6.22;;;;;;;14.25;100.00;98748.91;5117204;28;20062;-67
2023/07/23 01:52:11;;;;;;;8.45;6.22;;;;;;;14.02;100.00;98763.16;5116796;28;20403;-65
2023/07/23 01:54:37;;;;;;;10.35;9.45;;;;;;;14.22;100.00;98753.25;5116991;28;20058;-64
2023/07/23 01:57:04;;;;;;;9.98;6.03;;;;;;;14.20;100.00;98777.69;5116880;28;20082;-64
2023/07/23 01:59:29;;;;;;;8.70;6.43;;;;;;;14.10;100.00;98784.00;5116770;28;20134;-63
2023/07/23 02:01:55;;;;;;;6.05;5.45;;;;;;;14.17;100.00;98772.97;5116671;28;20409;-65
2023/07/23 02:04:21;;;;;;;6.75;5.60;;;;;;;14.10;100.00;98781.25;5117089;28;20079;-66
2023/07/23 02:06:47;;;;;;;8.23;5.88;;;;;;;14.14;100.00;98779.28;5116587;28;20154;-68
2023/07/23 02:09:13;;;;;;;10.45;5.38;;;;;;;13.87;100.00;98787.19;5117135;28;20431;-67
2023/07/23 02:11:39;;;;;;;9.13;6.18;;;;;;;14.05;100.00;98785.19;5116754;28;20116;-65
2023/07/23 02:14:06;;;;;;;6.47;5.82;;;;;;;14.04;100.00;98791.88;5116788;28;20326;-65
2023/07/23 02:16:31;;;;;;;6.40;5.80;;;;;;;14.20;100.00;98796.19;5116852;28;20047;-68
2023/07/23 02:18:58;;;;;;;9.80;6.05;;;;;;;14.05;100.00;98782.44;5116491;28;20052;-65
2023/07/23 02:21:24;;;;;;;7.25;6.20;;;;;;;14.30;100.00;98765.84;5116785;28;20242;-68
2023/07/23 02:23:51;;;;;;;7.60;6.70;;;;;;;14.24;100.00;98772.94;5116548;28;20074;-66
2023/07/23 02:26:17;;;;;;;7.13;6.20;;;;;;;14.47;100.00;98777.19;5116801;28;20097;-63
2023/07/23 02:28:43;;;;;;;7.70;6.22;;;;;;;14.30;100.00;98795.38;5116484;28;20059;-64
2023/07/23 02:31:10;;;;;;;9.65;6.82;;;;;;;14.47;100.00;98797.28;5116839;28;20530;-63
2023/07/23 02:33:36;;;;;;;7.43;6.00;;;;;;;14.55;100.00;98798.06;5116396;28;20055;-68
2023/07/23 02:36:02;;;;;;;8.48;6.18;;;;;;;14.58;100.00;98806.31;5116728;28;20146;-67
2023/07/23 02:38:29;;;;;;;10.02;6.63;;;;;;;14.59;100.00;98805.16;5116030;28;20108;-62
2023/07/23 02:40:55;;;;;;;7.63;5.65;;;;;;;14.55;100.00;98817.38;5116690;28;20069;-67
2023/07/23 02:43:21;;;;;;;10.30;6.30;;;;;;;14.67;100.00;98822.47;5118189;28;20058;-64
2023/07/23 02:45:47;;;;;;;9.98;5.93;;;;;;;14.71;100.00;98856.34;5119983;28;20142;-64
2023/07/23 02:48:14;;;;;;;6.35;5.28;;;;;;;14.62;100.00;98855.19;5120042;28;20048;-63
2023/07/23 02:50:40;;;;;;;9.02;5.95;;;;;;;14.73;100.00;98858.72;5119928;28;20051;-64
2023/07/23 02:53:26;;;;;;;6.65;5.95;;;;;;;14.85;100.00;98852.72;5120038;28;20130;-64
2023/07/23 02:55:52;;;;;;;10.95;5.85;;;;;;;14.79;100.00;98855.13;5119756;28;20162;-67
2023/07/23 02:58:18;;;;;;;9.02;5.32;;;;;;;14.50;100.00;98870.19;5119976;28;20047;-66
2023/07/23 03:00:44;;;;;;;6.40;5.75;;;;;;;14.75;100.00;98854.34;5120054;28;20101;-63
2023/07/23 03:03:10;;;;;;;5.78;4.70;;;;;;;14.80;100.00;98883.50;5121396;28;20052;-62
2023/07/23 03:05:37;;;;;;;7.00;4.95;;;;;;;15.02;100.00;98896.00;5120474;28;20081;-64
2023/07/23 03:08:04;;;;;;;7.65;4.93;;;;;;;15.27;100.00;98915.25;5120848;28;20426;-67
2023/07/23 03:10:29;;;;;;;7.78;4.18;;;;;;;15.52;100.00;98950.22;5120457;28;20294;-65
2023/07/23 03:12:55;;;;;;;4.80;4.40;;;;;;;15.78;100.00;98993.13;5121423;28;20047;-67
2023/07/23 03:15:21;;;;;;;6.72;3.92;;;;;;;15.99;100.00;99047.50;5120957;28;20134;-68
2023/07/23 03:17:47;;;;;;;4.15;3.80;;;;;;;16.16;100.00;99110.22;5120341;28;20102;-64
2023/07/23 03:20:15;;;;;;;5.05;3.75;;;;;;;16.38;100.00;99137.75;5120451;28;20431;-64
2023/07/23 03:22:41;;;;;;;6.38;3.90;;;;;;;16.84;100.00;99164.38;5119310;28;20135;-67
2023/07/23 03:25:08;;;;;;;3.55;3.10;;;;;;;16.89;100.00;99181.34;5119592;28;20154;-68
2023/07/23 03:27:34;;;;;;;5.20;3.13;;;;;;;17.04;100.00;99159.06;5119051;28;20047;-65
2023/07/23 03:30:00;;;;;;;3.97;3.30;;;;;;;17.18;100.00;99109.84;5119544;28;20143;-65
2023/07/23 03:32:26;;;;;;;4.03;3.40;;;;;;;17.65;100.00;99103.81;5118988;28;20051;-64
2023/07/23 03:34:52;;;;;;;4.05;2.90;;;;;;;17.96;100.00;99002.06;5119452;28;20054;-63
2023/07/23 03:37:17;;;;;;;4.38;2.97;;;;;;;18.16;100.00;98938.34;5119122;28;20048;-63
2023/07/23 03:39:44;;;;;;;2.80;2.60;;;;;;;18.38;100.00;98755.56;5119158;28;20074;-66
2023/07/23 03:42:10;;;;;;;3.80;2.40;;;;;;;18.74;100.00;98463.31;5119171;28;20084;-62
2023/07/23 03:44:36;;;;;;;2.95;2.33;;;;;;;18.94;100.00;98207.69;5119021;28;20094;-64
2023/07/23 03:47:04;;;;;;;5.00;2.47;;;;;;;19.00;100.00;98197.56;5119157;28;20409;-65
2023/07/23 03:49:30;;;;;;;3.17;2.42;;;;;;;19.20;100.00;98000.84;5118700;28;20364;-62
2023/07/23 03:51:58;;;;;;;8.05;2.20;;;;;;;19.36;100.00;97922.06;5119132;28;20052;-66
2023/07/23 03:54:24;;;;;;;3.22;2.20;;;;;;;19.51;100.00;97861.91;5118575;28;20134;-66
2023/07/23 03:56:51;;;;;;;2.90;2.03;;;;;;;19.61;100.00;97842.50;5119031;28;20316;-64
2023/07/23 03:59:17;;;;;;;2.78;2.05;;;;;;;19.89;100.00;97765.50;5118618;28;20344;-65
2023/07/23 04:01:43;;;;;;;2.30;2.10;;;;;;;20.09;100.00;97740.81;5119021;28;20097;-65
2023/07/23 04:04:09;;;;;;;2.28;2.08;;;;;;;20.21;100.00;97734.31;5118456;28;20052;-64
2023/07/23 04:06:34;;;;;;;5.53;2.58;;;;;;;20.29;100.00;97728.44;5118638;28;20047;-62
2023/07/23 04:09:00;;;;;;;3.25;2.10;;;;;;;20.50;100.00;97735.06;5118734;28;20128;-61
2023/07/23 04:11:26;;;;;;;3.25;2.03;;;;;;;20.70;100.00;97746.50;5118603;28;20314;-62
2023/07/23 04:13:53;;;;;;;2.40;1.92;;;;;;;20.77;100.00;97782.38;5118535;28;20492;-64
2023/07/23 04:16:19;;;;;;;8.75;1.90;;;;;;;20.82;100.00;97817.94;5118489;28;20047;-62
2023/07/23 04:18:46;;;;;;;6.78;2.10;;;;;;;20.87;100.00;97816.56;5118613;28;20360;-66
2023/07/23 04:21:12;;;;;;;3.70;2.20;;;;;;;20.67;100.00;97834.53;5118362;28;20092;-65
2023/07/23 04:23:38;;;;;;;3.38;2.13;;;;;;;20.89;100.00;97847.50;5118480;28;20047;-65
2023/07/23 04:26:04;;;;;;;2.80;2.08;;;;;;;21.19;100.00;97811.50;5118364;28;20139;-66
2023/07/23 04:28:30;;;;;;;2.05;1.90;;;;;;;21.26;100.00;97954.13;5118559;28;20051;-64
2023/07/23 04:30:57;;;;;;;1.80;1.70;;;;;;;21.37;100.00;97901.47;5118116;28;20052;-63
2023/07/23 04:33:22;;;;;;;1.77;1.65;;;;;;;21.61;100.00;97948.94;5118552;28;20143;-63
2023/07/23 04:35:48;;;;;;;4.32;2.10;;;;;;;21.59;100.00;97923.56;5118271;28;20051;-62
2023/07/23 04:38:14;;;;;;;3.92;2.25;;;;;;;21.83;100.00;97895.72;5118078;28;20133;-61
2023/07/23 04:40:40;;;;;;;3.38;2.70;;;;;;;22.05;100.00;97954.06;5118198;28;20058;-62
2023/07/23 04:43:06;;;;;;;2.63;1.90;;;;;;;21.55;100.00;97936.09;5118077;28;20059;-62
2023/07/23 04:45:32;;;;;;;3.15;1.92;;;;;;;21.21;100.00;97934.44;5118193;28;20083;-64
2023/07/23 04:47:58;;;;;;;2.47;1.80;;;;;;;21.08;100.00;97951.34;5117942;28;20055;-66
2023/07/23 04:50:25;;;;;;;1.70;1.60;;;;;;;21.27;100.00;97922.22;5118252;28;20058;-64
2023/07/23 04:52:51;;;;;;;2.08;1.98;;;;;;;20.75;100.00;97825.84;5117769;28;20109;-64
2023/07/23 04:55:17;;;;;;;2.38;2.13;;;;;;;20.47;100.00;97831.41;5118196;28;20138;-62
2023/07/23 04:57:42;;;;;;;3.17;1.83;;;;;;;20.66;100.00;97862.84;5117469;28;20494;-60
2023/07/23 05:00:09;;;;;;;3.45;1.90;;;;;;;19.96;100.00;97756.88;5118135;28;20086;-61
2023/07/23 05:02:35;;;;;;;4.38;2.13;;;;;;;19.86;100.00;97758.88;5117603;28;20328;-61
2023/07/23 05:05:01;;;;;;;3.33;1.90;;;;;;;19.91;100.00;97769.38;5117123;28;20054;-61
2023/07/23 05:07:27;;;;;;;5.32;1.75;;;;;;;19.62;100.00;97761.41;5117706;28;20054;-63
2023/07/23 05:09:53;;;;;;;2.92;1.92;;;;;;;19.49;100.00;97769.91;5117644;28;20055;-61
2023/07/23 05:12:19;;;;;;;3.13;2.17;;;;;;;19.71;100.00;97763.47;5118126;28;20071;-62
2023/07/23 05:14:48;;;;;;;1.92;1.80;;;;;;;19.93;100.00;97769.72;5117536;28;20052;-63
2023/07/23 05:17:14;;;;;;;1.88;1.70;;;;;;;20.75;100.00;97792.44;5117782;28;20147;-67
2023/07/23 05:19:40;;;;;;;2.10;1.90;;;;;;;19.75;100.00;97786.34;5117161;28;20082;-63
2023/07/23 05:22:07;;;;;;;4.10;1.60;;;;;;;20.26;100.00;97787.78;5117617;28;20062;-63
2023/07/23 05:24:32;;;;;;;8.77;2.03;;;;;;;20.35;100.00;97798.94;5117313;28;20138;-64
2023/07/23 05:26:58;;;;;;;1.70;1.60;;;;;;;21.09;100.00;97849.78;5117609;28;20044;-65
2023/07/23 05:29:24;;;;;;;4.60;1.77;;;;;;;21.13;100.00;97932.00;5117120;28;20138;-63
2023/07/23 05:31:51;;;;;;;2.40;1.73;;;;;;;21.45;100.00;97942.94;5117549;28;20050;-63
2023/07/23 05:34:17;;;;;;;7.20;1.70;;;;;;;22.25;100.00;98067.22;5117048;28;20051;-64
2023/07/23 05:36:43;;;;;;;1.60;1.50;;;;;;;22.60;100.00;98103.09;5117252;28;20051;-66
2023/07/23 05:39:10;;;;;;;4.88;1.70;;;;;;;22.84;100.00;98022.84;5117225;28;20051;-62
2023/07/23 05:41:36;;;;;;;4.35;1.55;;;;;;;21.70;100.00;98058.97;5117102;28;20113;-66
2023/07/23 05:44:02;;;;;;;2.92;1.63;;;;;;;21.26;100.00;97926.25;5117290;28;20105;-64
2023/07/23 05:46:28;;;;;;;5.88;1.80;;;;;;;21.04;100.00;97904.13;5116924;28;20082;-67
2023/07/23 05:48:54;;;;;;;2.47;1.75;;;;;;;21.34;100.00;97902.41;5117616;28;20048;-65
2023/07/23 05:51:20;;;;;;;6.53;1.73;;;;;;;21.58;100.00;98033.53;5117182;28;20055;-62
2023/07/23 05:53:46;;;;;;;3.65;2.22;;;;;;;21.76;100.00;98137.97;5116878;28;20421;-63
2023/07/23 05:56:12;;;;;;;1.60;1.50;;;;;;;21.96;100.00;98157.81;5116620;28;20090;-62
2023/07/23 05:58:38;;;;;;;1.55;1.40;;;;;;;22.33;100.00;98199.66;5116907;28;20051;-63
2023/07/23 06:01:04;;;;;;;2.83;1.67;;;;;;;21.77;100.00;98218.41;5116513;28;20394;-62
2023/07/23 06:03:30;;;;;;;2.15;1.90;;;;;;;22.97;100.00;98193.13;5117130;28;20047;-60
2023/07/23 06:05:56;;;;;;;2.00;1.88;;;;;;;21.55;100.00;98206.59;5116896;28;20043;-62
2023/07/23 06:08:22;;;;;;;3.05;1.58;;;;;;;21.62;100.00;98136.56;5116868;28;20063;-62
2023/07/23 06:10:48;;;;;;;3.50;2.20;;;;;;;22.06;100.00;98067.25;5116872;28;20079;-64
2023/07/23 06:13:14;;;;;;;2.13;1.48;;;;;;;21.45;100.00;98099.09;5116649;28;20085;-64
2023/07/23 06:15:40;;;;;;;1.70;1.60;;;;;;;21.19;100.00;98043.59;5116759;28;20043;-62
2023/07/23 06:18:06;;;;;;;4.22;1.95;;;;;;;21.84;100.00;98119.69;5117973;28;20244;-64
2023/07/23 06:20:32;;;;;;;2.75;1.58;;;;;;;22.05;100.00;98131.91;5120368;28;20489;-66
2023/07/23 06:23:00;;;;;;;1.63;1.52;;;;;;;21.30;100.00;98239.06;5120018;28;20054;-66
2023/07/23 06:25:26;;;;;;;2.80;1.40;;;;;;;20.96;100.00;98078.44;5120318;28;20115;-61
2023/07/23 06:27:52;;;;;;;8.95;2.70;;;;;;;20.72;100.00;98036.41;5119874;28;20055;-62
2023/07/23 06:30:18;;;;;;;3.42;1.58;;;;;;;20.30;100.00;98014.63;5120354;28;20130;-64
2023/07/23 06:32:44;;;;;;;5.10;1.63;;;;;;;20.14;100.00;97896.00;5120194;28;20138;-62
2023/07/23 06:35:10;;;;;;;10.32;2.03;;;;;;;20.33;100.00;97846.72;5119787;28;20047;-65
2023/07/23 06:37:37;;;;;;;4.97;1.48;;;;;;;21.15;100.00;97909.22;5119647;28;20055;-65
2023/07/23 06:40:05;;;;;;;1.88;1.60;;;;;;;21.01;100.00;98038.78;5119859;28;20048;-61
2023/07/23 06:42:30;;;;;;;3.30;1.85;;;;;;;22.08;100.00;98122.59;5120050;28;20066;-63
2023/07/23 06:44:57;;;;;;;1.90;1.40;;;;;;;21.71;100.00;98139.38;5119741;28;20489;-62
2023/07/23 06:47:23;;;;;;;1.50;1.27;;;;;;;22.49;100.00;98160.22;5119916;28;20130;-64
2023/07/23 06:49:49;;;;;;;1.77;1.52;;;;;;;22.86;100.00;98271.88;5119731;28;20052;-64
2023/07/23 06:52:15;;;;;;;2.35;1.58;;;;;;;22.50;100.00;98261.53;5119768;28;20105;-65
2023/07/23 06:54:42;;;;;;;3.67;1.77;;;;;;;21.98;100.00;98208.34;5119498;28;20048;-66
2023/07/23 06:57:08;;;;;;;1.40;1.30;;;;;;;22.13;100.00;98147.09;5119971;28;20402;-61
2023/07/23 06:59:34;;;;;;;6.50;1.65;;;;;;;22.27;100.00;98177.19;5119620;28;20087;-62
2023/07/23 07:02:00;;;;;;;2.55;1.98;;;;;;;23.36;100.00;98291.91;5119707;28;20109;-67
2023/07/23 07:04:27;;;;;;;2.28;1.42;;;;;;;23.16;100.00;98364.38;5119636;28;20134;-66
2023/07/23 07:06:53;;;;;;;1.63;1.50;;;;;;;22.43;100.00;98315.69;5119668;28;20055;-67
2023/07/23 07:09:19;;;;;;;2.83;1.48;;;;;;;23.38;100.00;98317.38;5119637;28;20147;-64
2023/07/23 07:11:44;;;;;;;3.55;1.60;;;;;;;23.73;100.00;98456.09;5119582;28;20062;-62
2023/07/23 07:14:10;;;;;;;3.58;1.70;;;;;;;24.50;100.00;98397.50;5119348;28;20460;-63
2023/07/23 07:16:37;;;;;;;1.95;1.42;;;;;;;25.09;100.00;98450.91;5119272;28;20058;-62
2023/07/23 07:19:03;;;;;;;3.60;1.40;;;;;;;25.66;100.00;98486.38;5119451;28;20108;-66
2023/07/23 07:21:30;;;;;;;1.98;1.30;;;;;;;25.35;100.00;98517.72;5119094;28;20047;-67
2023/07/23 07:23:56;;;;;;;1.98;1.38;;;;;;;24.21;100.00;98503.78;5119446;28;20059;-67
2023/07/23 07:26:22;;;;;;;2.25;1.60;;;;;;;24.65;100.00;98510.41;5118979;28;20427;-66
2023/07/23 07:28:47;;;;;;;4.80;1.50;;;;;;;23.87;100.00;98461.00;5118779;28;20058;-67
2023/07/23 07:31:15;;;;;;;1.70;1.60;;;;;;;23.90;100.00;98460.81;5118797;28;20138;-64
2023/07/23 07:33:43;;;;;;;1.60;1.50;;;;;;;24.37;100.00;98442.53;5119045;28;20058;-65
2023/07/23 07:36:10;;;;;;;1.77;1.00;;;;;;;25.37;100.00;98495.56;5119061;28;20093;-62
2023/07/23 07:38:36;;;;;;;2.33;1.52;;;;;;;26.40;100.00;98555.78;5118633;28;20527;-63
2023/07/23 07:41:02;;;;;;;1.55;1.45;;;;;;;26.46;100.00;98565.84;5119043;28;20112;-64
2023/07/23 07:43:28;;;;;;;3.25;1.50;;;;;;;25.33;100.00;98565.13;5118563;28;20322;-64
2023/07/23 07:45:59;;;;;;;3.38;1.33;;;;;;;25.24;100.00;98539.94;5119023;28;20044;-62
2023/07/23 07:48:25;;;;;;;6.88;2.08;;;;;;;25.00;100.00;98503.50;5118500;28;20059;-61
2023/07/23 07:50:57;;;;;;;1.98;1.30;;;;;;;25.56;100.00;98574.75;5119030;28;20436;-62
2023/07/23 07:53:23;;;;;;;1.80;1.25;;;;;;;25.95;100.00;98574.69;5118651;28;20062;-64
2023/07/23 07:55:50;;;;;;;2.75;1.30;;;;;;;26.74;92.03;98591.56;5119040;28;20043;-66
2023/07/23 07:58:17;;;;;;;2.25;1.35;;;;;;;27.13;86.49;98605.44;5118374;28;20059;-66
2023/07/23 08:00:43;;;;;;;3.72;1.40;;;;;;;26.83;88.23;98598.34;5118672;28;20048;-65
2023/07/23 08:03:10;;;;;;;1.67;1.17;;;;;;;27.01;88.12;98614.19;5119020;28;20052;-61
2023/07/23 08:05:36;;;;;;;2.55;1.30;;;;;;;26.09;97.95;98592.81;5118567;28;20143;-62
2023/07/23 08:08:05;;;;;;;6.68;1.42;;;;;;;26.96;91.24;98601.59;5118723;28;20051;-64
2023/07/23 08:10:33;;;;;;;5.70;1.70;;;;;;;26.47;100.00;98586.28;5118318;28;20055;-64
2023/07/23 08:13:01;;;;;;;3.53;1.58;;;;;;;27.00;99.27;98590.91;5118617;28;20051;-67
2023/07/23 08:15:27;;;;;;;2.25;1.42;;;;;;;27.65;87.49;98608.34;5118300;28;20059;-66
2023/07/23 08:17:53;;;;;;;1.42;1.23;;;;;;;27.86;77.11;98620.38;5118503;28;20044;-62
2023/07/23 08:20:20;;;;;;;1.20;1.00;;;;;;;27.26;80.15;98616.34;5118101;28;20135;-66
2023/07/23 08:22:46;;;;;;;1.75;1.48;;;;;;;27.77;77.62;98614.16;5118122;28;20302;-67
2023/07/23 08:25:13;;;;;;;1.40;1.30;;;;;;;27.29;76.57;98611.75;5117976;28;20134;-64
2023/07/23 08:27:41;;;;;;;1.85;1.30;;;;;;;27.54;74.61;98613.09;5118268;28;20057;-67
2023/07/23 08:30:09;;;;;;;2.25;1.45;;;;;;;27.54;77.03;98611.03;5118078;28;20393;-61
2023/07/23 08:32:36;;;;;;;2.67;1.48;;;;;;;27.91;76.04;98604.81;5118173;28;20126;-63
2023/07/23 08:35:02;;;;;;;1.50;1.40;;;;;;;26.09;81.91;98593.59;5118172;28;20043;-61
2023/07/23 08:37:30;;;;;;;1.85;1.40;;;;;;;25.81;87.49;98605.09;5117964;28;20083;-63
2023/07/23 08:39:56;;;;;;;1.40;1.13;;;;;;;26.35;84.16;98604.22;5117153;28;20409;-62
2023/07/23 08:43:07;;;;;;;2.28;1.15;;;;;;;26.95;80.90;98609.25;5117939;28;20134;-65
2023/07/23 08:46:11;;;;;;;2.05;1.20;;;;;;;26.26;86.12;98599.50;5035694;28;20428;-64
2023/07/23 08:49:04;;;;;;;1.55;1.20;;;;;;;25.70;80.67;98604.88;5112702;28;20135;-64
2023/07/23 08:51:44;;;;;;;2.08;1.23;;;;;;;25.56;77.80;98614.81;5117777;28;20062;-65
2023/07/23 08:54:11;;;;;;;2.70;1.20;;;;;;;26.67;77.21;98614.47;5118005;28;20371;-65
2023/07/23 08:56:38;;;;;;;2.13;1.23;;;;;;;26.77;72.62;98614.38;5117492;28;20056;-64
2023/07/23 08:59:05;;;;;;;1.33;1.23;;;;;;;27.58;69.36;98624.91;5117469;28;20057;-63
2023/07/23 09:01:33;;;;;;;2.13;1.23;;;;;;;27.58;76.49;98613.63;5117772;28;20055;-64
2023/07/23 09:03:59;;;;;;;1.75;1.10;;;;;;;27.61;75.94;98613.44;5117465;28;20062;-66
2023/07/23 09:06:28;;;;;;;1.88;1.10;;;;;;;27.80;73.70;98610.34;5117702;28;20048;-65
2023/07/23 09:08:54;;;;;;;1.40;1.30;;;;;;;27.07;70.00;98624.25;5117866;28;20135;-66
2023/07/23 09:11:20;;;;;;;1.92;1.20;;;;;;;25.53;75.01;98618.59;5117680;28;20051;-61
2023/07/23 09:13:47;;;;;;;2.30;0.95;;;;;;;25.53;76.31;98615.00;5117438;28;20044;-64
2023/07/23 09:16:13;;;;;;;1.65;1.40;;;;;;;24.74;82.92;98616.09;5117608;28;20378;-61
2023/07/23 09:18:40;;;;;;;1.85;1.35;;;;;;;25.08;82.06;98606.41;5117239;28;20047;-61
2023/07/23 09:21:07;;;;;;;1.70;1.20;;;;;;;24.20;88.40;98606.63;5117975;28;20142;-64
2023/07/23 09:23:33;;;;;;;2.65;1.60;;;;;;;23.88;96.33;98586.47;5117197;28;20134;-63
2023/07/23 09:26:00;;;;;;;1.63;1.20;;;;;;;23.26;100.00;98558.84;5117600;28;20047;-61
2023/07/23 09:28:26;;;;;;;1.92;1.40;;;;;;;22.91;100.00;98558.31;5117364;28;20051;-62
2023/07/23 09:30:53;;;;;;;1.80;1.70;;;;;;;23.59;100.00;98556.19;5117152;28;20052;-63
2023/07/23 09:33:19;;;;;;;2.28;1.40;;;;;;;23.48;100.00;98551.06;5117255;28;20047;-63
2023/07/23 09:35:45;;;;;;;1.60;1.50;;;;;;;23.00;100.00;98525.59;5117209;28;20328;-62
2023/07/23 09:38:12;;;;;;;1.90;1.40;;;;;;;23.05;100.00;98554.16;5117059;28;20456;-60
2023/07/23 09:40:40;;;;;;;3.75;1.55;;;;;;;23.56;100.00;98562.72;5117060;28;20139;-63
2023/07/23 09:43:06;;;;;;;3.40;1.48;;;;;;;24.71;93.79;98577.81;5117328;28;20048;-65
2023/07/23 09:45:35;;;;;;;1.50;1.40;;;;;;;25.02;86.28;98594.28;5116880;28;20089;-64
2023/07/23 09:48:02;;;;;;;1.52;1.42;;;;;;;25.99;83.40;98594.94;5117264;28;20058;-62
2023/07/23 09:50:29;;;;;;;1.58;1.38;;;;;;;25.44;84.16;98607.41;5117025;28;20048;-65
2023/07/23 09:52:56;;;;;;;3.15;1.42;;;;;;;26.11;81.81;98601.53;5116910;28;20093;-64
2023/07/23 09:55:23;;;;;;;1.50;1.20;;;;;;;25.90;81.08;98606.28;5116941;28;20055;-62
2023/07/23 09:57:51;;;;;;;1.73;1.25;;;;;;;26.17;79.91;98605.22;5116877;28;20391;-65
2023/07/23 10:00:17;;;;;;;1.70;1.30;;;;;;;26.25;79.98;98607.13;5116992;28;20146;-66
2023/07/23 10:02:45;;;;;;;5.18;1.55;;;;;;;26.13;78.31;98608.22;5116606;28;20550;-64
2023/07/23 10:05:13;;;;;;;2.38;1.42;;;;;;;26.76;79.28;98599.53;5116790;28;20134;-65
2023/07/23 10:07:39;;;;;;;1.30;1.20;;;;;;;27.18;76.01;98606.75;5116666;28;20047;-62
2023/07/23 10:10:06;;;;;;;1.23;1.20;;;;;;;27.15;75.86;98611.31;5116892;28;20136;-66
2023/07/23 10:12:33;;;;;;;5.72;1.35;;;;;;;26.14;78.04;98595.72;5116614;28;20134;-65
2023/07/23 10:14:59;;;;;;;1.60;1.50;;;;;;;25.71;83.09;98603.59;5116821;28;20055;-65
2023/07/23 10:17:25;;;;;;;2.85;1.50;;;;;;;26.39;79.27;98605.59;5116444;28;20044;-65
2023/07/23 10:19:53;;;;;;;1.95;1.35;;;;;;;26.78;76.11;98604.66;5116936;28;20432;-66
2023/07/23 10:22:21;;;;;;;2.22;1.30;;;;;;;26.81;78.40;98603.69;5116332;28;20052;-63
2023/07/23 10:24:51;;;;;;;1.42;1.33;;;;;;;27.36;70.48;98600.09;5116304;28;20317;-62
2023/07/23 10:27:18;;;;;;;1.38;1.20;;;;;;;27.25;73.98;98611.97;5116662;28;20062;-64
2023/07/23 10:30:18;;;;;;;2.08;1.10;;;;;;;27.15;73.60;98605.69;5116366;28;20142;-63
2023/07/23 10:32:45;;;;;;;3.10;1.42;;;;;;;26.52;75.55;98606.09;5116736;28;20047;-62
2023/07/23 10:35:11;;;;;;;1.48;1.23;;;;;;;26.20;77.81;98605.03;5116355;28;20138;-64
2023/07/23 10:37:37;;;;;;;2.22;1.50;;;;;;;25.68;81.72;98601.75;5116667;28;20168;-65
2023/07/23 10:40:03;;;;;;;1.60;1.40;;;;;;;25.05;85.90;98595.34;5116233;28;20052;-63
2023/07/23 10:42:37;;;;;;;1.30;1.10;;;;;;;25.00;82.39;98593.22;5116577;28;20044;-63
2023/07/23 10:45:14;;;;;;;2.55;1.15;;;;;;;24.73;83.70;98580.16;5116244;28;20051;-65
2023/07/23 10:47:47;;;;;;;1.30;1.20;;;;;;;24.35;86.06;98585.09;5116134;28;20059;-65
2023/07/23 10:50:15;;;;;;;2.50;1.30;;;;;;;24.49;87.38;98580.88;5116373;28;20067;-61
2023/07/23 10:52:43;;;;;;;1.10;1.10;;;;;;;24.30;93.29;98577.34;5116157;28;20135;-61
2023/07/23 10:55:09;;;;;;;2.35;1.63;;;;;;;23.98;90.96;98573.25;5116152;28;20134;-60
2023/07/23 10:57:39;;;;;;;1.67;1.40;;;;;;;23.61;96.06;98562.09;5115830;28;20054;-63
2023/07/23 11:00:19;;;;;;;1.17;1.15;;;;;;;23.76;100.00;98559.47;5116199;28;20082;-66
2023/07/23 11:02:47;;;;;;;1.83;1.10;;;;;;;23.89;96.42;98554.47;5115697;28;20052;-60
2023/07/23 11:05:13;;;;;;;1.52;1.38;;;;;;;24.48;95.99;98562.50;5119320;28;20074;-65
2023/07/23 11:07:39;;;;;;;1.48;1.30;;;;;;;24.49;98.74;98554.88;5119239;28;20439;-64
2023/07/23 11:10:18;;;;;;;1.58;1.48;;;;;;;24.32;93.43;98562.84;5119390;28;20052;-63
2023/07/23 11:12:44;;;;;;;2.83;1.50;;;;;;;24.19;93.78;98563.06;5119491;28;20059;-65
2023/07/23 11:15:14;;;;;;;1.40;1.30;;;;;;;24.16;100.00;98550.78;5119195;28;20055;-60
2023/07/23 11:17:40;;;;;;;1.10;1.00;;;;;;;23.91;100.00;98523.94;5119213;28;20423;-63
2023/07/23 11:20:08;;;;;;;2.92;1.38;;;;;;;23.98;98.56;98555.66;5119249;28;20052;-62
2023/07/23 11:22:40;;;;;;;1.20;1.20;;;;;;;23.93;98.14;98549.47;5119522;28;20134;-63
2023/07/23 11:25:14;;;;;;;2.25;1.40;;;;;;;24.30;100.00;98542.97;5119174;28;20436;-61
2023/07/23 11:27:40;;;;;;;1.85;1.30;;;;;;;24.19;95.94;98551.84;5119198;28;20051;-61